Hathaway, MT (59333)

10:47 AM MDT on September 16, 2014 (GMT -0600)
Wiley | Change Station
CLOSE
Current Station
Airport
Location: Miles City,
Elevation: 2628 ft
Nearby Weather Stations

Elev 2628 ft 46.43 °N, 105.88 °W | Updated 54 minutes ago

Clear
Clear
54 °F
Feels Like 54 °F
N
5
Wind Variable Wind from SSE

Today
High -- | Low -- °F
--% Chance of Precip.
Yesterday
High -- | Low -- °F
Precip. -- in
6:44 AM 7:14 PM
Last Quarter, 44% visible
Pressure 30.01 in
Visibility 10.0 miles
Clouds Clear
Dew Point 45 °F
Humidity 72%
Rainfall 0.00 in
Snow Depth 0 in , 0 in , 1 in
UV 3 out of 12
Pollen 5.10 out of 12
Air Quality Not available.
Flu Activity Not available.
METAR KMLS 161553Z AUTO 16004KT 10SM CLR 12/07 A3001 RMK AO2 SLP162 T01220072

More Conditions Fewer Conditions

Pressure 30.01 in
Visibility 10.0 miles
Clouds Clear
Dew Point 45 °F
Humidity 72%
Rainfall 0.00 in
Snow Depth 0 in , 0 in , 1 in
UV 3 out of 12
Pollen 5.10 out of 12
Air Quality Not available.
Flu Activity Not available.
METAR KMLS 161553Z AUTO 16004KT 10SM CLR 12/07 A3001 RMK AO2 SLP162 T01220072

More Conditions Fewer Conditions

10-Day Weather Forecast

Almanac

Astronomy

Sep. 16, 2014 Rise Set
Actual Time 6:44 AM MDT 7:14 PM MDT
Civil Twilight 6:13 AM MDT 7:44 PM MDT
Nautical Twilight 5:38 AM MDT 8:19 PM MDT
Astronomical Twilight 5:01 AM MDT 8:56 PM MDT
Moon No Moon Rise 2:54 PM MDT
Length of Visible Light 13h 30m
Length of Day
12h 29m
Tomorrow will be 3m 14s shorter.
Last Quarter, 44% of the Moon is Illuminated
Today
Last Quarter
Sep 24
New
Oct 1
First Quarter
Oct 8
Full
Oct 15
Last Quarter

Today's Extremes

State Highs State Lows

Community

WunderPhotos

Upload Photos

1,753,830 photos uploaded!

Nearby

Snow Depth

Station Depth Elevation
Onion Park 0 in 7410 ft
Mule Creek 0 in 8300 ft
Porcupine 1 in 6500 ft
Burnt Mountain 0 in 5880 ft
Daisy Peak 0 in 7600 ft

Earthquake Activity

City Distance Mag. Time & Date
No recent earthquake activity has been reported nearby.
Minimum magnitude displayed is 2.5.

Coastal Water Temperatures

Place Temperature
No Stations Reporting

Nearby Weather Stations